sensor_id;sensor_type;location;lat;lon;timestamp;P1;durP1;ratioP1;P2;durP2;ratioP2
32319;SDS011;19080;51.750;5.888;2022-09-09T00:02:24;2.75;;;1.98;;
32319;SDS011;19080;51.750;5.888;2022-09-09T00:10:26;1.70;;;1.60;;
32319;SDS011;19080;51.750;5.888;2022-09-09T00:15:25;2.75;;;1.95;;
32319;SDS011;19080;51.750;5.888;2022-09-09T00:17:58;2.45;;;1.85;;
32319;SDS011;19080;51.750;5.888;2022-09-09T00:20:29;2.47;;;1.63;;
32319;SDS011;19080;51.750;5.888;2022-09-09T00:23:11;2.60;;;2.15;;
32319;SDS011;19080;51.750;5.888;2022-09-09T00:28:26;2.25;;;1.90;;
32319;SDS011;19080;51.750;5.888;2022-09-09T00:30:53;2.63;;;1.90;;
32319;SDS011;19080;51.750;5.888;2022-09-09T00:33:22;3.08;;;2.10;;
32319;SDS011;19080;51.750;5.888;2022-09-09T00:38:18;5.55;;;3.13;;
32319;SDS011;19080;51.750;5.888;2022-09-09T00:40:48;3.92;;;3.03;;
32319;SDS011;19080;51.750;5.888;2022-09-09T00:49:13;4.25;;;3.20;;
32319;SDS011;19080;51.750;5.888;2022-09-09T00:51:52;5.88;;;3.13;;
32319;SDS011;19080;51.750;5.888;2022-09-09T00:56:59;4.05;;;3.25;;
32319;SDS011;19080;51.750;5.888;2022-09-09T00:59:31;4.07;;;2.92;;
32319;SDS011;19080;51.750;5.888;2022-09-09T01:01:58;4.95;;;3.00;;
32319;SDS011;19080;51.750;5.888;2022-09-09T01:04:28;3.63;;;3.10;;
32319;SDS011;19080;51.750;5.888;2022-09-09T01:06:59;4.25;;;3.78;;
32319;SDS011;19080;51.750;5.888;2022-09-09T01:12:16;4.03;;;3.65;;
32319;SDS011;19080;51.750;5.888;2022-09-09T01:14:48;4.43;;;3.97;;
32319;SDS011;19080;51.750;5.888;2022-09-09T01:27:56;3.65;;;3.30;;
32319;SDS011;19080;51.750;5.888;2022-09-09T01:30:24;6.10;;;3.78;;
32319;SDS011;19080;51.750;5.888;2022-09-09T01:32:53;6.22;;;3.60;;
32319;SDS011;19080;51.750;5.888;2022-09-09T01:35:32;4.30;;;3.78;;
32319;SDS011;19080;51.750;5.888;2022-09-09T01:38:01;3.88;;;3.47;;
32319;SDS011;19080;51.750;5.888;2022-09-09T01:40:28;3.78;;;3.45;;
32319;SDS011;19080;51.750;5.888;2022-09-09T01:42:56;5.07;;;3.95;;
32319;SDS011;19080;51.750;5.888;2022-09-09T01:53:41;3.78;;;3.03;;
32319;SDS011;19080;51.750;5.888;2022-09-09T01:56:25;4.35;;;3.15;;
32319;SDS011;19080;51.750;5.888;2022-09-09T02:01:26;4.25;;;3.50;;
32319;SDS011;19080;51.750;5.888;2022-09-09T02:03:57;3.33;;;3.03;;
32319;SDS011;19080;51.750;5.888;2022-09-09T02:06:35;5.78;;;3.63;;
32319;SDS011;19080;51.750;5.888;2022-09-09T02:09:13;4.45;;;3.10;;
32319;SDS011;19080;51.750;5.888;2022-09-09T02:11:44;5.03;;;3.42;;
32319;SDS011;19080;51.750;5.888;2022-09-09T02:14:22;3.92;;;3.30;;
32319;SDS011;19080;51.750;5.888;2022-09-09T02:16:52;6.30;;;3.92;;
32319;SDS011;19080;51.750;5.888;2022-09-09T02:19:29;6.45;;;3.70;;
32319;SDS011;19080;51.750;5.888;2022-09-09T02:22:07;4.88;;;3.80;;
32319;SDS011;19080;51.750;5.888;2022-09-09T02:24:35;4.15;;;3.33;;
32319;SDS011;19080;51.750;5.888;2022-09-09T02:27:13;5.00;;;4.22;;
32319;SDS011;19080;51.750;5.888;2022-09-09T02:29:42;4.55;;;3.67;;
32319;SDS011;19080;51.750;5.888;2022-09-09T02:32:11;5.85;;;3.88;;
32319;SDS011;19080;51.750;5.888;2022-09-09T02:34:41;5.30;;;3.38;;
32319;SDS011;19080;51.750;5.888;2022-09-09T02:37:09;3.95;;;3.55;;
32319;SDS011;19080;51.750;5.888;2022-09-09T02:39:38;3.97;;;3.58;;
32319;SDS011;19080;51.750;5.888;2022-09-09T02:42:08;4.68;;;3.50;;
32319;SDS011;19080;51.750;5.888;2022-09-09T02:44:34;6.00;;;4.20;;
32319;SDS011;19080;51.750;5.888;2022-09-09T02:47:47;7.72;;;3.70;;
32319;SDS011;19080;51.750;5.888;2022-09-09T02:50:01;8.15;;;4.10;;
32319;SDS011;19080;51.750;5.888;2022-09-09T02:52:36;7.57;;;4.10;;
32319;SDS011;19080;51.750;5.888;2022-09-09T02:55:06;6.85;;;4.22;;
32319;SDS011;19080;51.750;5.888;2022-09-09T02:57:36;6.80;;;4.65;;
32319;SDS011;19080;51.750;5.888;2022-09-09T03:00:04;4.45;;;4.05;;
32319;SDS011;19080;51.750;5.888;2022-09-09T03:02:32;8.05;;;3.72;;
32319;SDS011;19080;51.750;5.888;2022-09-09T03:05:04;8.93;;;4.50;;
32319;SDS011;19080;51.750;5.888;2022-09-09T03:07:31;5.70;;;4.03;;
32319;SDS011;19080;51.750;5.888;2022-09-09T03:09:57;5.43;;;4.43;;
32319;SDS011;19080;51.750;5.888;2022-09-09T03:12:26;7.38;;;4.55;;
32319;SDS011;19080;51.750;5.888;2022-09-09T03:14:52;7.35;;;4.20;;
32319;SDS011;19080;51.750;5.888;2022-09-09T03:17:19;5.93;;;4.22;;
32319;SDS011;19080;51.750;5.888;2022-09-09T03:19:50;5.43;;;4.40;;
32319;SDS011;19080;51.750;5.888;2022-09-09T03:22:18;4.03;;;3.63;;
32319;SDS011;19080;51.750;5.888;2022-09-09T03:24:45;4.88;;;4.05;;
32319;SDS011;19080;51.750;5.888;2022-09-09T03:27:14;8.18;;;4.30;;
32319;SDS011;19080;51.750;5.888;2022-09-09T03:29:41;8.77;;;4.25;;
32319;SDS011;19080;51.750;5.888;2022-09-09T03:32:12;7.53;;;4.72;;
32319;SDS011;19080;51.750;5.888;2022-09-09T03:34:39;11.35;;;4.50;;
32319;SDS011;19080;51.750;5.888;2022-09-09T03:37:09;6.78;;;4.35;;
32319;SDS011;19080;51.750;5.888;2022-09-09T03:39:36;5.55;;;4.53;;
32319;SDS011;19080;51.750;5.888;2022-09-09T03:42:03;7.45;;;4.30;;
32319;SDS011;19080;51.750;5.888;2022-09-09T03:44:30;5.47;;;4.53;;
32319;SDS011;19080;51.750;5.888;2022-09-09T03:46:57;5.18;;;4.65;;
32319;SDS011;19080;51.750;5.888;2022-09-09T03:49:26;4.75;;;3.80;;
32319;SDS011;19080;51.750;5.888;2022-09-09T03:51:55;6.55;;;4.32;;
32319;SDS011;19080;51.750;5.888;2022-09-09T03:54:23;7.75;;;4.20;;
32319;SDS011;19080;51.750;5.888;2022-09-09T03:56:50;8.98;;;5.10;;
32319;SDS011;19080;51.750;5.888;2022-09-09T03:59:16;6.88;;;4.55;;
32319;SDS011;19080;51.750;5.888;2022-09-09T04:01:43;5.18;;;4.10;;
32319;SDS011;19080;51.750;5.888;2022-09-09T04:04:11;13.75;;;5.75;;
32319;SDS011;19080;51.750;5.888;2022-09-09T04:06:38;6.07;;;4.55;;
32319;SDS011;19080;51.750;5.888;2022-09-09T04:09:06;6.30;;;4.85;;
32319;SDS011;19080;51.750;5.888;2022-09-09T04:11:33;9.30;;;5.00;;
32319;SDS011;19080;51.750;5.888;2022-09-09T04:14:00;7.78;;;4.85;;
32319;SDS011;19080;51.750;5.888;2022-09-09T04:16:28;9.95;;;5.32;;
32319;SDS011;19080;51.750;5.888;2022-09-09T04:18:55;8.13;;;4.78;;
32319;SDS011;19080;51.750;5.888;2022-09-09T04:21:22;6.85;;;4.22;;
32319;SDS011;19080;51.750;5.888;2022-09-09T04:23:49;9.57;;;4.95;;
32319;SDS011;19080;51.750;5.888;2022-09-09T04:26:16;4.85;;;3.80;;
32319;SDS011;19080;51.750;5.888;2022-09-09T04:28:43;7.28;;;4.75;;
32319;SDS011;19080;51.750;5.888;2022-09-09T04:31:16;8.00;;;4.85;;
32319;SDS011;19080;51.750;5.888;2022-09-09T04:33:45;8.77;;;4.78;;
32319;SDS011;19080;51.750;5.888;2022-09-09T04:36:12;9.00;;;5.22;;
32319;SDS011;19080;51.750;5.888;2022-09-09T04:38:39;7.95;;;5.18;;
32319;SDS011;19080;51.750;5.888;2022-09-09T04:41:05;7.25;;;5.18;;
32319;SDS011;19080;51.750;5.888;2022-09-09T04:43:33;10.60;;;5.35;;
32319;SDS011;19080;51.750;5.888;2022-09-09T04:46:02;8.80;;;5.18;;
32319;SDS011;19080;51.750;5.888;2022-09-09T04:48:29;9.80;;;4.93;;
32319;SDS011;19080;51.750;5.888;2022-09-09T04:50:59;9.68;;;4.55;;
32319;SDS011;19080;51.750;5.888;2022-09-09T04:53:26;10.45;;;4.80;;
32319;SDS011;19080;51.750;5.888;2022-09-09T04:56:00;9.63;;;4.85;;
32319;SDS011;19080;51.750;5.888;2022-09-09T04:58:28;6.88;;;4.25;;
32319;SDS011;19080;51.750;5.888;2022-09-09T05:00:55;6.07;;;4.30;;
32319;SDS011;19080;51.750;5.888;2022-09-09T05:03:28;8.45;;;3.92;;
32319;SDS011;19080;51.750;5.888;2022-09-09T05:06:01;8.13;;;4.10;;
32319;SDS011;19080;51.750;5.888;2022-09-09T05:08:28;7.72;;;3.63;;
32319;SDS011;19080;51.750;5.888;2022-09-09T05:10:55;6.32;;;3.90;;
32319;SDS011;19080;51.750;5.888;2022-09-09T05:13:21;7.55;;;3.72;;
32319;SDS011;19080;51.750;5.888;2022-09-09T05:15:52;7.20;;;3.92;;
32319;SDS011;19080;51.750;5.888;2022-09-09T05:18:19;9.57;;;3.58;;
32319;SDS011;19080;51.750;5.888;2022-09-09T05:20:46;5.70;;;3.30;;
32319;SDS011;19080;51.750;5.888;2022-09-09T05:23:12;8.43;;;3.55;;
32319;SDS011;19080;51.750;5.888;2022-09-09T05:25:39;9.95;;;3.50;;
32319;SDS011;19080;51.750;5.888;2022-09-09T05:28:09;10.02;;;3.22;;
32319;SDS011;19080;51.750;5.888;2022-09-09T05:30:38;6.30;;;3.45;;
32319;SDS011;19080;51.750;5.888;2022-09-09T05:33:05;6.15;;;3.22;;
32319;SDS011;19080;51.750;5.888;2022-09-09T05:35:32;8.50;;;3.50;;
32319;SDS011;19080;51.750;5.888;2022-09-09T05:37:59;10.45;;;3.90;;
32319;SDS011;19080;51.750;5.888;2022-09-09T05:40:27;5.72;;;2.90;;
32319;SDS011;19080;51.750;5.888;2022-09-09T05:42:53;7.07;;;3.30;;
32319;SDS011;19080;51.750;5.888;2022-09-09T05:45:20;9.63;;;3.47;;
32319;SDS011;19080;51.750;5.888;2022-09-09T05:47:51;13.93;;;3.40;;
32319;SDS011;19080;51.750;5.888;2022-09-09T05:50:18;10.25;;;3.20;;
32319;SDS011;19080;51.750;5.888;2022-09-09T05:52:45;9.65;;;4.43;;
32319;SDS011;19080;51.750;5.888;2022-09-09T05:55:12;6.53;;;3.25;;
32319;SDS011;19080;51.750;5.888;2022-09-09T05:57:38;6.85;;;3.60;;
32319;SDS011;19080;51.750;5.888;2022-09-09T06:00:05;9.07;;;3.25;;
32319;SDS011;19080;51.750;5.888;2022-09-09T06:02:39;6.95;;;3.38;;
32319;SDS011;19080;51.750;5.888;2022-09-09T06:05:12;7.25;;;2.70;;
32319;SDS011;19080;51.750;5.888;2022-09-09T06:07:40;5.78;;;2.58;;
32319;SDS011;19080;51.750;5.888;2022-09-09T06:10:09;7.82;;;2.83;;
32319;SDS011;19080;51.750;5.888;2022-09-09T06:12:35;5.60;;;2.58;;
32319;SDS011;19080;51.750;5.888;2022-09-09T06:15:02;8.77;;;3.15;;
32319;SDS011;19080;51.750;5.888;2022-09-09T06:17:28;5.00;;;2.10;;
32319;SDS011;19080;51.750;5.888;2022-09-09T06:19:56;6.68;;;2.70;;
32319;SDS011;19080;51.750;5.888;2022-09-09T06:22:22;7.90;;;2.80;;
32319;SDS011;19080;51.750;5.888;2022-09-09T06:24:49;11.43;;;3.25;;
32319;SDS011;19080;51.750;5.888;2022-09-09T06:27:15;6.40;;;2.90;;
32319;SDS011;19080;51.750;5.888;2022-09-09T06:29:42;7.05;;;2.90;;
32319;SDS011;19080;51.750;5.888;2022-09-09T06:32:08;5.95;;;3.08;;
32319;SDS011;19080;51.750;5.888;2022-09-09T06:34:35;13.98;;;3.40;;
32319;SDS011;19080;51.750;5.888;2022-09-09T06:37:02;8.40;;;3.30;;
32319;SDS011;19080;51.750;5.888;2022-09-09T06:39:37;8.70;;;2.70;;
32319;SDS011;19080;51.750;5.888;2022-09-09T06:42:04;9.05;;;3.15;;
32319;SDS011;19080;51.750;5.888;2022-09-09T06:44:49;7.70;;;3.00;;
32319;SDS011;19080;51.750;5.888;2022-09-09T06:47:23;8.40;;;2.70;;
32319;SDS011;19080;51.750;5.888;2022-09-09T06:49:50;11.70;;;2.45;;
32319;SDS011;19080;51.750;5.888;2022-09-09T06:52:17;8.20;;;2.30;;
32319;SDS011;19080;51.750;5.888;2022-09-09T06:54:44;8.95;;;2.78;;
32319;SDS011;19080;51.750;5.888;2022-09-09T06:57:12;5.30;;;2.25;;
32319;SDS011;19080;51.750;5.888;2022-09-09T06:59:59;4.80;;;2.22;;
32319;SDS011;19080;51.750;5.888;2022-09-09T07:02:25;7.28;;;2.60;;
32319;SDS011;19080;51.750;5.888;2022-09-09T07:04:52;8.80;;;2.53;;
32319;SDS011;19080;51.750;5.888;2022-09-09T07:07:19;11.38;;;2.72;;
32319;SDS011;19080;51.750;5.888;2022-09-09T07:09:46;9.38;;;2.50;;
32319;SDS011;19080;51.750;5.888;2022-09-09T07:12:13;5.72;;;2.55;;
32319;SDS011;19080;51.750;5.888;2022-09-09T07:14:46;7.47;;;2.90;;
32319;SDS011;19080;51.750;5.888;2022-09-09T07:17:13;9.25;;;2.20;;
32319;SDS011;19080;51.750;5.888;2022-09-09T07:19:39;5.90;;;1.67;;
32319;SDS011;19080;51.750;5.888;2022-09-09T07:22:05;7.53;;;2.40;;
32319;SDS011;19080;51.750;5.888;2022-09-09T07:24:33;8.82;;;2.47;;
32319;SDS011;19080;51.750;5.888;2022-09-09T07:27:00;8.85;;;2.50;;
32319;SDS011;19080;51.750;5.888;2022-09-09T07:29:27;8.15;;;2.28;;
32319;SDS011;19080;51.750;5.888;2022-09-09T07:31:55;10.70;;;2.78;;
32319;SDS011;19080;51.750;5.888;2022-09-09T07:34:27;8.65;;;2.03;;
32319;SDS011;19080;51.750;5.888;2022-09-09T07:36:55;6.28;;;2.47;;
32319;SDS011;19080;51.750;5.888;2022-09-09T07:39:23;9.15;;;2.47;;
32319;SDS011;19080;51.750;5.888;2022-09-09T07:41:52;5.40;;;2.15;;
32319;SDS011;19080;51.750;5.888;2022-09-09T07:44:22;11.63;;;2.45;;
32319;SDS011;19080;51.750;5.888;2022-09-09T07:46:54;5.15;;;1.90;;
32319;SDS011;19080;51.750;5.888;2022-09-09T07:49:27;9.55;;;2.10;;
32319;SDS011;19080;51.750;5.888;2022-09-09T07:51:59;6.03;;;2.28;;
32319;SDS011;19080;51.750;5.888;2022-09-09T07:54:26;5.70;;;1.80;;
32319;SDS011;19080;51.750;5.888;2022-09-09T07:56:53;7.53;;;1.77;;
32319;SDS011;19080;51.750;5.888;2022-09-09T07:59:23;5.35;;;1.70;;
32319;SDS011;19080;51.750;5.888;2022-09-09T08:01:52;8.02;;;1.98;;
32319;SDS011;19080;51.750;5.888;2022-09-09T08:04:26;10.43;;;2.00;;
32319;SDS011;19080;51.750;5.888;2022-09-09T08:06:57;8.60;;;2.30;;
32319;SDS011;19080;51.750;5.888;2022-09-09T08:09:25;7.78;;;2.03;;
32319;SDS011;19080;51.750;5.888;2022-09-09T08:11:56;8.38;;;1.73;;
32319;SDS011;19080;51.750;5.888;2022-09-09T08:14:23;8.10;;;2.15;;
32319;SDS011;19080;51.750;5.888;2022-09-09T08:16:50;5.45;;;1.83;;
32319;SDS011;19080;51.750;5.888;2022-09-09T08:19:22;10.25;;;2.00;;
32319;SDS011;19080;51.750;5.888;2022-09-09T08:21:50;11.00;;;1.77;;
32319;SDS011;19080;51.750;5.888;2022-09-09T08:24:17;8.65;;;2.50;;
32319;SDS011;19080;51.750;5.888;2022-09-09T08:26:48;5.10;;;1.88;;
32319;SDS011;19080;51.750;5.888;2022-09-09T08:29:18;12.00;;;2.10;;
32319;SDS011;19080;51.750;5.888;2022-09-09T08:31:50;5.85;;;2.42;;
32319;SDS011;19080;51.750;5.888;2022-09-09T08:34:17;9.73;;;2.45;;
32319;SDS011;19080;51.750;5.888;2022-09-09T08:36:48;6.78;;;2.08;;
32319;SDS011;19080;51.750;5.888;2022-09-09T08:39:15;5.75;;;1.88;;
32319;SDS011;19080;51.750;5.888;2022-09-09T08:41:46;6.40;;;1.67;;
32319;SDS011;19080;51.750;5.888;2022-09-09T08:50:13;7.32;;;1.77;;
32319;SDS011;19080;51.750;5.888;2022-09-09T08:57:58;6.20;;;1.50;;
32319;SDS011;19080;51.750;5.888;2022-09-09T09:00:42;6.80;;;1.73;;
32319;SDS011;19080;51.750;5.888;2022-09-09T09:03:28;8.90;;;1.63;;
32319;SDS011;19080;51.750;5.888;2022-09-09T09:08:36;5.88;;;1.75;;
32319;SDS011;19080;51.750;5.888;2022-09-09T09:11:04;3.75;;;1.50;;
32319;SDS011;19080;51.750;5.888;2022-09-09T09:13:34;10.13;;;1.98;;
32319;SDS011;19080;51.750;5.888;2022-09-09T09:18:54;5.72;;;1.60;;
32319;SDS011;19080;51.750;5.888;2022-09-09T09:23:59;8.95;;;1.70;;
32319;SDS011;19080;51.750;5.888;2022-09-09T09:26:31;11.00;;;1.90;;
32319;SDS011;19080;51.750;5.888;2022-09-09T09:28:59;5.75;;;2.05;;
32319;SDS011;19080;51.750;5.888;2022-09-09T09:31:27;8.40;;;1.92;;
32319;SDS011;19080;51.750;5.888;2022-09-09T09:33:54;7.95;;;1.77;;
32319;SDS011;19080;51.750;5.888;2022-09-09T09:36:39;6.28;;;1.80;;
32319;SDS011;19080;51.750;5.888;2022-09-09T09:39:09;5.78;;;1.65;;
32319;SDS011;19080;51.750;5.888;2022-09-09T09:41:58;5.25;;;1.52;;
32319;SDS011;19080;51.750;5.888;2022-09-09T09:44:33;6.40;;;2.17;;
32319;SDS011;19080;51.750;5.888;2022-09-09T09:47:20;6.70;;;1.63;;
32319;SDS011;19080;51.750;5.888;2022-09-09T09:50:00;8.77;;;2.05;;
32319;SDS011;19080;51.750;5.888;2022-09-09T09:52:31;10.65;;;2.25;;
32319;SDS011;19080;51.750;5.888;2022-09-09T09:55:02;8.10;;;1.48;;
32319;SDS011;19080;51.750;5.888;2022-09-09T09:57:33;6.38;;;1.63;;
32319;SDS011;19080;51.750;5.888;2022-09-09T10:00:12;4.50;;;1.67;;
32319;SDS011;19080;51.750;5.888;2022-09-09T10:02:47;6.45;;;1.65;;
32319;SDS011;19080;51.750;5.888;2022-09-09T10:05:23;8.68;;;2.33;;
32319;SDS011;19080;51.750;5.888;2022-09-09T10:08:04;5.30;;;1.77;;
32319;SDS011;19080;51.750;5.888;2022-09-09T10:10:37;7.05;;;2.08;;
32319;SDS011;19080;51.750;5.888;2022-09-09T10:13:11;5.75;;;1.58;;
32319;SDS011;19080;51.750;5.888;2022-09-09T10:18:24;6.72;;;1.67;;
32319;SDS011;19080;51.750;5.888;2022-09-09T10:21:07;7.97;;;1.88;;
32319;SDS011;19080;51.750;5.888;2022-09-09T10:23:46;10.02;;;2.10;;
32319;SDS011;19080;51.750;5.888;2022-09-09T10:29:24;9.55;;;1.52;;
32319;SDS011;19080;51.750;5.888;2022-09-09T10:36:56;5.88;;;1.65;;
32319;SDS011;19080;51.750;5.888;2022-09-09T10:39:39;5.97;;;1.52;;
32319;SDS011;19080;51.750;5.888;2022-09-09T10:42:09;7.68;;;1.80;;
32319;SDS011;19080;51.750;5.888;2022-09-09T10:44:50;8.85;;;2.03;;
32319;SDS011;19080;51.750;5.888;2022-09-09T10:47:24;8.25;;;1.48;;
32319;SDS011;19080;51.750;5.888;2022-09-09T10:52:39;5.78;;;1.40;;
32319;SDS011;19080;51.750;5.888;2022-09-09T10:55:09;8.95;;;2.25;;
32319;SDS011;19080;51.750;5.888;2022-09-09T11:00:06;7.22;;;1.80;;
32319;SDS011;19080;51.750;5.888;2022-09-09T11:02:39;6.72;;;1.70;;
32319;SDS011;19080;51.750;5.888;2022-09-09T11:05:19;8.07;;;1.70;;
32319;SDS011;19080;51.750;5.888;2022-09-09T11:07:54;5.88;;;1.70;;
32319;SDS011;19080;51.750;5.888;2022-09-09T11:13:09;5.05;;;1.58;;
32319;SDS011;19080;51.750;5.888;2022-09-09T11:15:41;7.65;;;1.95;;
32319;SDS011;19080;51.750;5.888;2022-09-09T11:18:18;7.38;;;1.67;;
32319;SDS011;19080;51.750;5.888;2022-09-09T11:20:45;8.13;;;1.90;;
32319;SDS011;19080;51.750;5.888;2022-09-09T11:23:20;8.00;;;1.95;;
32319;SDS011;19080;51.750;5.888;2022-09-09T11:25:51;6.53;;;2.40;;
32319;SDS011;19080;51.750;5.888;2022-09-09T11:28:32;8.23;;;2.15;;
32319;SDS011;19080;51.750;5.888;2022-09-09T11:31:30;7.93;;;2.03;;
32319;SDS011;19080;51.750;5.888;2022-09-09T11:36:38;6.80;;;1.98;;
32319;SDS011;19080;51.750;5.888;2022-09-09T11:41:53;4.07;;;1.70;;
32319;SDS011;19080;51.750;5.888;2022-09-09T11:44:25;4.82;;;1.70;;
32319;SDS011;19080;51.750;5.888;2022-09-09T11:46:53;5.53;;;2.17;;
32319;SDS011;19080;51.750;5.888;2022-09-09T11:49:29;9.02;;;2.50;;
32319;SDS011;19080;51.750;5.888;2022-09-09T11:51:57;8.80;;;2.22;;
32319;SDS011;19080;51.750;5.888;2022-09-09T11:54:28;6.28;;;2.30;;
32319;SDS011;19080;51.750;5.888;2022-09-09T11:56:55;4.67;;;1.70;;
32319;SDS011;19080;51.750;5.888;2022-09-09T11:59:26;5.53;;;1.83;;
32319;SDS011;19080;51.750;5.888;2022-09-09T12:02:00;4.80;;;1.70;;
32319;SDS011;19080;51.750;5.888;2022-09-09T12:04:28;5.03;;;1.75;;
32319;SDS011;19080;51.750;5.888;2022-09-09T12:07:00;3.72;;;1.70;;
32319;SDS011;19080;51.750;5.888;2022-09-09T12:09:33;3.45;;;1.35;;
32319;SDS011;19080;51.750;5.888;2022-09-09T12:12:06;4.10;;;1.42;;
32319;SDS011;19080;51.750;5.888;2022-09-09T12:14:37;4.55;;;1.08;;
32319;SDS011;19080;51.750;5.888;2022-09-09T12:19:39;4.53;;;1.20;;
32319;SDS011;19080;51.750;5.888;2022-09-09T12:24:43;5.38;;;1.60;;
32319;SDS011;19080;51.750;5.888;2022-09-09T12:29:49;1.83;;;0.90;;
32319;SDS011;19080;51.750;5.888;2022-09-09T12:32:22;3.45;;;1.40;;
32319;SDS011;19080;51.750;5.888;2022-09-09T12:37:28;2.13;;;1.05;;
32319;SDS011;19080;51.750;5.888;2022-09-09T12:40:05;3.38;;;1.50;;
32319;SDS011;19080;51.750;5.888;2022-09-09T12:42:33;3.72;;;1.50;;
32319;SDS011;19080;51.750;5.888;2022-09-09T12:47:36;7.75;;;2.03;;
32319;SDS011;19080;51.750;5.888;2022-09-09T12:50:03;3.75;;;1.60;;
32319;SDS011;19080;51.750;5.888;2022-09-09T12:52:34;7.53;;;2.28;;
32319;SDS011;19080;51.750;5.888;2022-09-09T12:55:03;5.70;;;1.52;;
32319;SDS011;19080;51.750;5.888;2022-09-09T12:57:33;5.47;;;2.05;;
32319;SDS011;19080;51.750;5.888;2022-09-09T13:00:08;6.05;;;1.90;;
32319;SDS011;19080;51.750;5.888;2022-09-09T13:02:45;4.70;;;1.73;;
32319;SDS011;19080;51.750;5.888;2022-09-09T13:05:15;3.97;;;2.05;;
32319;SDS011;19080;51.750;5.888;2022-09-09T13:07:42;3.58;;;2.15;;
32319;SDS011;19080;51.750;5.888;2022-09-09T13:10:13;3.40;;;1.63;;
32319;SDS011;19080;51.750;5.888;2022-09-09T13:12:50;7.35;;;1.77;;
32319;SDS011;19080;51.750;5.888;2022-09-09T13:15:22;4.90;;;2.00;;
32319;SDS011;19080;51.750;5.888;2022-09-09T13:17:49;7.82;;;1.98;;
32319;SDS011;19080;51.750;5.888;2022-09-09T13:20:17;4.88;;;1.65;;
32319;SDS011;19080;51.750;5.888;2022-09-09T13:22:44;3.60;;;1.38;;
32319;SDS011;19080;51.750;5.888;2022-09-09T13:27:38;5.78;;;1.70;;
32319;SDS011;19080;51.750;5.888;2022-09-09T13:35:35;6.72;;;2.03;;
32319;SDS011;19080;51.750;5.888;2022-09-09T13:38:13;6.43;;;1.58;;
32319;SDS011;19080;51.750;5.888;2022-09-09T13:40:40;5.05;;;1.50;;
32319;SDS011;19080;51.750;5.888;2022-09-09T13:43:20;5.40;;;1.80;;
32319;SDS011;19080;51.750;5.888;2022-09-09T13:45:57;6.68;;;1.77;;
32319;SDS011;19080;51.750;5.888;2022-09-09T13:48:25;5.47;;;1.63;;
32319;SDS011;19080;51.750;5.888;2022-09-09T13:51:01;5.07;;;1.98;;
32319;SDS011;19080;51.750;5.888;2022-09-09T13:53:29;9.55;;;2.10;;
32319;SDS011;19080;51.750;5.888;2022-09-09T13:55:56;5.10;;;2.30;;
32319;SDS011;19080;51.750;5.888;2022-09-09T13:58:23;5.43;;;2.05;;
32319;SDS011;19080;51.750;5.888;2022-09-09T14:00:52;6.68;;;2.35;;
32319;SDS011;19080;51.750;5.888;2022-09-09T14:03:19;5.65;;;2.10;;
32319;SDS011;19080;51.750;5.888;2022-09-09T14:05:45;7.90;;;3.08;;
32319;SDS011;19080;51.750;5.888;2022-09-09T14:08:15;5.40;;;2.00;;
32319;SDS011;19080;51.750;5.888;2022-09-09T14:10:42;5.78;;;2.22;;
32319;SDS011;19080;51.750;5.888;2022-09-09T14:13:08;4.50;;;1.48;;
32319;SDS011;19080;51.750;5.888;2022-09-09T14:15:34;4.35;;;1.30;;
32319;SDS011;19080;51.750;5.888;2022-09-09T14:18:01;3.30;;;1.13;;
32319;SDS011;19080;51.750;5.888;2022-09-09T14:20:28;5.95;;;1.25;;
32319;SDS011;19080;51.750;5.888;2022-09-09T14:22:54;6.43;;;1.48;;
32319;SDS011;19080;51.750;5.888;2022-09-09T14:25:20;3.45;;;1.00;;
32319;SDS011;19080;51.750;5.888;2022-09-09T14:27:47;1.95;;;0.98;;
32319;SDS011;19080;51.750;5.888;2022-09-09T14:30:13;3.60;;;1.30;;
32319;SDS011;19080;51.750;5.888;2022-09-09T14:32:39;3.60;;;1.13;;
32319;SDS011;19080;51.750;5.888;2022-09-09T14:35:06;5.25;;;1.35;;
32319;SDS011;19080;51.750;5.888;2022-09-09T14:37:33;5.32;;;1.50;;
32319;SDS011;19080;51.750;5.888;2022-09-09T14:39:59;6.45;;;1.88;;
32319;SDS011;19080;51.750;5.888;2022-09-09T14:42:26;5.63;;;1.60;;
32319;SDS011;19080;51.750;5.888;2022-09-09T14:44:52;2.70;;;1.15;;
32319;SDS011;19080;51.750;5.888;2022-09-09T14:47:19;6.72;;;1.40;;
32319;SDS011;19080;51.750;5.888;2022-09-09T14:49:45;4.32;;;1.50;;
32319;SDS011;19080;51.750;5.888;2022-09-09T14:52:12;3.65;;;1.60;;
32319;SDS011;19080;51.750;5.888;2022-09-09T14:54:39;5.40;;;1.25;;
32319;SDS011;19080;51.750;5.888;2022-09-09T14:57:05;6.47;;;1.52;;
32319;SDS011;19080;51.750;5.888;2022-09-09T14:59:31;5.90;;;1.58;;
32319;SDS011;19080;51.750;5.888;2022-09-09T15:01:58;4.35;;;1.65;;
32319;SDS011;19080;51.750;5.888;2022-09-09T15:04:26;5.03;;;1.13;;
32319;SDS011;19080;51.750;5.888;2022-09-09T15:06:53;3.53;;;1.00;;
32319;SDS011;19080;51.750;5.888;2022-09-09T15:09:20;4.07;;;1.23;;
32319;SDS011;19080;51.750;5.888;2022-09-09T15:11:46;4.97;;;0.98;;
32319;SDS011;19080;51.750;5.888;2022-09-09T15:14:12;3.70;;;1.55;;
32319;SDS011;19080;51.750;5.888;2022-09-09T15:16:39;5.20;;;1.20;;
32319;SDS011;19080;51.750;5.888;2022-09-09T15:19:06;4.72;;;1.30;;
32319;SDS011;19080;51.750;5.888;2022-09-09T15:21:33;3.08;;;1.30;;
32319;SDS011;19080;51.750;5.888;2022-09-09T15:24:00;4.65;;;1.63;;
32319;SDS011;19080;51.750;5.888;2022-09-09T15:26:27;4.22;;;1.45;;
32319;SDS011;19080;51.750;5.888;2022-09-09T15:28:53;3.90;;;1.33;;
32319;SDS011;19080;51.750;5.888;2022-09-09T15:31:21;5.47;;;1.50;;
32319;SDS011;19080;51.750;5.888;2022-09-09T15:33:52;4.47;;;1.30;;
32319;SDS011;19080;51.750;5.888;2022-09-09T15:36:22;4.05;;;1.50;;
32319;SDS011;19080;51.750;5.888;2022-09-09T15:38:49;4.43;;;1.17;;
32319;SDS011;19080;51.750;5.888;2022-09-09T15:41:16;2.95;;;1.20;;
32319;SDS011;19080;51.750;5.888;2022-09-09T15:43:43;3.08;;;1.33;;
32319;SDS011;19080;51.750;5.888;2022-09-09T15:51:10;5.50;;;1.70;;
32319;SDS011;19080;51.750;5.888;2022-09-09T15:53:58;5.13;;;1.60;;
32319;SDS011;19080;51.750;5.888;2022-09-09T15:56:27;2.70;;;1.25;;
32319;SDS011;19080;51.750;5.888;2022-09-09T15:58:57;2.92;;;1.27;;
32319;SDS011;19080;51.750;5.888;2022-09-09T16:01:25;3.05;;;1.00;;
32319;SDS011;19080;51.750;5.888;2022-09-09T16:03:53;2.47;;;1.38;;
32319;SDS011;19080;51.750;5.888;2022-09-09T16:06:20;3.63;;;1.85;;
32319;SDS011;19080;51.750;5.888;2022-09-09T16:08:48;9.27;;;2.80;;
32319;SDS011;19080;51.750;5.888;2022-09-09T16:11:17;9.68;;;2.08;;
32319;SDS011;19080;51.750;5.888;2022-09-09T16:13:46;4.22;;;1.45;;
32319;SDS011;19080;51.750;5.888;2022-09-09T16:16:17;4.00;;;1.40;;
32319;SDS011;19080;51.750;5.888;2022-09-09T16:18:47;5.63;;;1.23;;
32319;SDS011;19080;51.750;5.888;2022-09-09T16:21:15;3.13;;;1.35;;
32319;SDS011;19080;51.750;5.888;2022-09-09T16:23:42;2.85;;;1.42;;
32319;SDS011;19080;51.750;5.888;2022-09-09T16:26:10;3.05;;;1.27;;
32319;SDS011;19080;51.750;5.888;2022-09-09T16:28:37;2.92;;;1.05;;
32319;SDS011;19080;51.750;5.888;2022-09-09T16:31:04;3.10;;;1.20;;
32319;SDS011;19080;51.750;5.888;2022-09-09T16:33:30;2.17;;;1.23;;
32319;SDS011;19080;51.750;5.888;2022-09-09T16:35:57;3.28;;;1.15;;
32319;SDS011;19080;51.750;5.888;2022-09-09T16:38:23;3.95;;;1.02;;
32319;SDS011;19080;51.750;5.888;2022-09-09T16:40:50;2.75;;;1.02;;
32319;SDS011;19080;51.750;5.888;2022-09-09T16:43:17;5.35;;;1.48;;
32319;SDS011;19080;51.750;5.888;2022-09-09T16:45:44;3.08;;;1.10;;
32319;SDS011;19080;51.750;5.888;2022-09-09T16:48:11;2.38;;;1.40;;
32319;SDS011;19080;51.750;5.888;2022-09-09T16:50:38;3.08;;;1.20;;
32319;SDS011;19080;51.750;5.888;2022-09-09T16:53:05;4.30;;;1.30;;
32319;SDS011;19080;51.750;5.888;2022-09-09T16:55:41;2.75;;;1.10;;
32319;SDS011;19080;51.750;5.888;2022-09-09T16:58:10;0.80;;;0.77;;
32319;SDS011;19080;51.750;5.888;2022-09-09T17:00:37;1.65;;;1.17;;